Time;durP1;ratioP1;P1;durP2;ratioP2;P2;SDS_P1;SDS_P2;PMS_P1;PMS_P2;Temp;Humidity;BMP_temperature;BMP_pressure;BME280_temperature;BME280_humidity;BME280_pressure;Samples;Min_cycle;Max_cycle;Signal;HPM_P1;HPM_P2
2022/09/05 00:00:19;;;;;;;0.00;0.00;;;18.60;99.90;;;;;;5064967;28;20564;-81
2022/09/05 00:02:58;;;;;;;0.00;0.00;;;18.50;99.90;;;;;;5065243;28;20440;-82
2022/09/05 00:05:44;;;;;;;0.00;0.00;;;18.40;99.90;;;;;;5065236;28;20699;-81
2022/09/05 00:08:37;;;;;;;0.00;0.00;;;18.30;99.90;;;;;;5064149;28;20445;-81
2022/09/05 00:11:11;;;;;;;0.00;0.00;;;18.20;99.90;;;;;;5064259;28;20546;-82
2022/09/05 00:14:14;;;;;;;0.00;0.00;;;18.20;99.90;;;;;;5066002;28;20835;-81
2022/09/05 00:17:14;;;;;;;0.00;0.00;;;18.10;99.90;;;;;;5063361;28;20439;-79
2022/09/05 00:19:51;;;;;;;0.00;0.00;;;18.00;99.90;;;;;;5063939;28;20472;-79
2022/09/05 00:22:50;;;;;;;0.00;0.00;;;18.00;99.90;;;;;;5064019;28;20465;-83
2022/09/05 00:25:55;;;;;;;0.00;0.00;;;17.90;99.90;;;;;;5065423;28;20441;-81
2022/09/05 00:28:34;;;;;;;0.00;0.00;;;17.90;99.90;;;;;;5066391;28;20441;-82
2022/09/05 00:31:17;;;;;;;0.00;0.00;;;17.70;99.90;;;;;;5067591;28;20504;-83
2022/09/05 00:34:18;;;;;;;0.00;0.00;;;17.70;99.90;;;;;;5066920;28;20432;-83
2022/09/05 00:36:52;;;;;;;0.00;0.00;;;17.60;99.90;;;;;;5067367;28;20685;-82
2022/09/05 00:39:24;;;;;;;0.00;0.00;;;17.60;99.90;;;;;;5067498;28;20472;-82
2022/09/05 00:41:56;;;;;;;0.00;0.00;;;17.50;99.90;;;;;;5068107;28;20442;-82
2022/09/05 00:44:30;;;;;;;0.00;0.00;;;17.60;99.90;;;;;;5074067;28;20511;-81
2022/09/05 00:47:05;;;;;;;0.00;0.00;;;17.60;99.90;;;;;;5090744;28;20486;-80
2022/09/05 00:49:40;;;;;;;0.00;0.00;;;17.50;99.90;;;;;;5081704;28;20474;-81
2022/09/05 00:52:14;;;;;;;0.00;0.00;;;17.50;99.90;;;;;;5068955;28;20459;-80
2022/09/05 00:55:03;;;;;;;0.00;0.00;;;17.40;99.90;;;;;;5072921;28;20659;-85
2022/09/05 00:58:00;;;;;;;0.00;0.00;;;17.40;99.90;;;;;;5089647;28;20461;-80
2022/09/05 01:00:43;;;;;;;0.00;0.00;;;17.40;99.90;;;;;;5080285;28;20693;-81
2022/09/05 01:03:25;;;;;;;0.00;0.00;;;17.40;99.90;;;;;;5074879;28;20913;-81
2022/09/05 01:06:16;;;;;;;0.00;0.00;;;17.40;99.90;;;;;;5091633;28;20439;-81
2022/09/05 01:09:17;;;;;;;0.00;0.00;;;17.30;99.90;;;;;;5095316;28;20549;-81
2022/09/05 01:12:01;;;;;;;0.00;0.00;;;17.30;99.90;;;;;;5088307;28;20443;-81
2022/09/05 01:14:47;;;;;;;0.00;0.00;;;17.30;99.90;;;;;;5085086;28;20518;-82
2022/09/05 01:17:31;;;;;;;0.00;0.00;;;17.20;99.90;;;;;;5070443;28;20563;-82
2022/09/05 01:20:20;;;;;;;0.00;0.00;;;17.20;99.90;;;;;;5065425;28;20455;-81
2022/09/05 01:23:09;;;;;;;0.00;0.00;;;17.10;99.90;;;;;;5065671;28;20549;-81
2022/09/05 01:25:52;;;;;;;0.00;0.00;;;17.10;99.90;;;;;;5065171;28;20495;-81
2022/09/05 01:28:28;;;;;;;0.00;0.00;;;17.10;99.90;;;;;;5064116;28;20455;-81
2022/09/05 01:31:25;;;;;;;0.00;0.00;;;17.00;99.90;;;;;;5063281;28;20431;-81
2022/09/05 01:34:00;;;;;;;0.00;0.00;;;17.00;99.90;;;;;;5065307;28;20861;-80
2022/09/05 01:36:48;;;;;;;0.00;0.00;;;17.00;99.90;;;;;;5064906;28;20486;-82
2022/09/05 01:39:23;;;;;;;0.00;0.00;;;17.00;99.90;;;;;;5064201;28;20611;-80
2022/09/05 01:42:28;;;;;;;0.00;0.00;;;17.00;99.90;;;;;;5065071;28;20455;-82
2022/09/05 01:45:05;;;;;;;0.00;0.00;;;17.00;99.90;;;;;;5066769;28;20840;-81
2022/09/05 01:47:45;;;;;;;0.00;0.00;;;17.00;99.90;;;;;;5066551;28;20777;-81
2022/09/05 01:50:27;;;;;;;0.00;0.00;;;17.00;99.90;;;;;;5070688;28;20461;-81
2022/09/05 01:53:10;;;;;;;0.00;0.00;;;17.00;99.90;;;;;;5065277;28;20452;-83
2022/09/05 01:56:05;;;;;;;0.00;0.00;;;17.00;99.90;;;;;;5065633;28;20476;-83
2022/09/05 01:59:02;;;;;;;0.00;0.00;;;17.00;99.90;;;;;;5065051;28;20490;-83
2022/09/05 02:01:44;;;;;;;0.00;0.00;;;17.00;99.90;;;;;;5066663;28;20448;-83
2022/09/05 02:04:39;;;;;;;0.00;0.00;;;16.90;99.90;;;;;;5068431;28;20541;-82
2022/09/05 02:07:17;;;;;;;0.00;0.00;;;17.00;99.90;;;;;;5087368;28;20438;-82
2022/09/05 02:10:27;;;;;;;0.00;0.00;;;17.00;99.90;;;;;;5092687;28;20459;-80
2022/09/05 02:13:03;;;;;;;0.00;0.00;;;17.00;99.90;;;;;;5085672;28;20655;-80
2022/09/05 02:24:57;;;;;;;;;;;;;;;;;;;;;
2022/09/05 02:27:47;;;;;;;0.00;0.00;;;17.10;99.90;;;;;;5024207;28;20447;-93
2022/09/05 02:30:40;;;;;;;0.00;0.00;;;17.10;99.90;;;;;;5035849;28;20537;-93
2022/09/05 02:33:33;;;;;;;0.00;0.00;;;17.10;99.90;;;;;;5038712;28;20516;-92
2022/09/05 02:36:10;;;;;;;0.00;0.00;;;17.10;99.90;;;;;;5040646;28;20492;-93
2022/09/05 02:38:45;;;;;;;0.00;0.00;;;17.10;99.90;;;;;;5038638;28;20524;-93
2022/09/05 02:41:37;;;;;;;0.00;0.00;;;17.00;99.90;;;;;;5041222;28;20852;-94
2022/09/05 02:44:35;;;;;;;0.00;0.00;;;17.10;99.90;;;;;;5061301;28;20843;-92
2022/09/05 02:47:30;;;;;;;0.00;0.00;;;17.00;99.90;;;;;;5081010;28;20440;-93
2022/09/05 02:50:08;;;;;;;0.00;0.00;;;16.90;99.90;;;;;;5082643;28;20449;-94
2022/09/05 02:52:58;;;;;;;0.00;0.00;;;16.90;99.90;;;;;;5091328;28;20444;-93
2022/09/05 02:56:22;;;;;;;0.00;0.00;;;16.90;99.90;;;;;;5089806;28;20474;-92
2022/09/05 02:59:24;;;;;;;0.00;0.00;;;16.90;99.90;;;;;;5001267;28;20451;-92
2022/09/05 03:02:15;;;;;;;0.00;0.00;;;16.80;99.90;;;;;;5003917;28;20477;-93
2022/09/05 03:05:01;;;;;;;0.00;0.00;;;16.90;99.90;;;;;;5004767;28;20586;-92
2022/09/05 03:07:59;;;;;;;0.00;0.00;;;16.90;99.90;;;;;;4997375;28;20530;-93
2022/09/05 03:14:09;;;;;;;0.00;0.00;;;16.80;99.90;;;;;;4843149;29;20470;-93
2022/09/05 03:21:06;;;;;;;0.00;0.00;;;16.70;99.90;;;;;;4786647;29;20967;-89
2022/09/05 03:24:12;;;;;;;0.00;0.00;;;16.70;99.90;;;;;;4768346;30;21146;-92
2022/09/05 03:27:14;;;;;;;0.00;0.00;;;16.80;99.90;;;;;;4884036;29;20464;-89
2022/09/05 03:30:28;;;;;;;0.00;0.00;;;16.80;99.90;;;;;;4879154;29;20492;-92
2022/09/05 03:33:41;;;;;;;0.00;0.00;;;16.80;99.90;;;;;;4850339;29;20456;-92
2022/09/05 03:36:54;;;;;;;0.00;0.00;;;16.80;99.90;;;;;;4920006;29;20459;-91
2022/09/05 03:42:52;;;;;;;0.00;0.00;;;16.90;99.90;;;;;;5075596;22;20486;-87
2022/09/05 03:45:53;;;;;;;0.00;0.00;;;16.90;99.90;;;;;;5067599;28;20459;-84
2022/09/05 03:48:39;;;;;;;0.00;0.00;;;16.90;99.90;;;;;;5068704;28;20736;-82
2022/09/05 03:51:19;;;;;;;0.00;0.00;;;17.00;99.90;;;;;;5066634;28;20441;-81
2022/09/05 03:54:25;;;;;;;0.00;0.00;;;17.10;99.90;;;;;;5066726;28;20451;-80
2022/09/05 03:57:28;;;;;;;0.00;0.00;;;17.20;99.90;;;;;;5067167;28;21075;-80
2022/09/05 04:00:20;;;;;;;0.00;0.00;;;17.30;99.90;;;;;;5067072;28;20851;-84
2022/09/05 04:03:15;;;;;;;0.00;0.00;;;17.40;99.90;;;;;;5066046;28;20757;-83
2022/09/05 04:06:16;;;;;;;0.00;0.00;;;17.40;99.90;;;;;;5070343;28;20439;-83
2022/09/05 04:09:13;;;;;;;0.00;0.00;;;17.40;99.90;;;;;;5078908;28;20475;-82
2022/09/05 04:12:12;;;;;;;0.00;0.00;;;17.30;99.90;;;;;;5076845;28;20840;-83
2022/09/05 04:14:46;;;;;;;0.00;0.00;;;17.20;99.90;;;;;;5071359;28;20475;-83
2022/09/05 04:17:26;;;;;;;0.00;0.00;;;17.20;99.90;;;;;;5070891;28;20471;-83
2022/09/05 04:20:00;;;;;;;0.00;0.00;;;17.10;99.90;;;;;;5070000;28;20468;-84
2022/09/05 04:22:49;;;;;;;0.00;0.00;;;17.10;99.90;;;;;;5070858;28;20466;-82
2022/09/05 04:25:34;;;;;;;0.00;0.00;;;17.00;99.90;;;;;;5069881;28;20717;-82
2022/09/05 04:28:14;;;;;;;0.00;0.00;;;17.00;99.90;;;;;;5070312;28;20442;-84
2022/09/05 04:30:48;;;;;;;0.00;0.00;;;17.00;99.90;;;;;;5069823;28;20451;-81
2022/09/05 04:33:22;;;;;;;0.00;0.00;;;16.90;99.90;;;;;;5070819;28;20449;-80
2022/09/05 04:36:25;;;;;;;0.00;0.00;;;16.90;99.90;;;;;;5071248;28;20522;-81
2022/09/05 04:39:22;;;;;;;0.00;0.00;;;16.90;99.90;;;;;;5068175;28;20483;-82
2022/09/05 04:41:53;;;;;;;0.00;0.00;;;16.90;99.90;;;;;;5070082;28;20671;-81
2022/09/05 04:44:26;;;;;;;0.00;0.00;;;16.90;99.90;;;;;;5067872;28;20424;-81
2022/09/05 04:46:56;;;;;;;0.00;0.00;;;17.00;99.90;;;;;;5064924;28;20491;-80
2022/09/05 04:49:28;;;;;;;0.00;0.00;;;17.00;99.90;;;;;;5066004;28;20464;-80
2022/09/05 04:52:11;;;;;;;0.00;0.00;;;16.90;99.90;;;;;;5066352;28;20447;-80
2022/09/05 04:54:53;;;;;;;0.00;0.00;;;17.00;99.90;;;;;;5064241;28;20435;-82
2022/09/05 04:57:25;;;;;;;0.00;0.00;;;16.90;99.90;;;;;;5065866;28;20765;-82
2022/09/05 05:00:01;;;;;;;0.00;0.00;;;16.90;99.90;;;;;;5063915;28;20694;-81
2022/09/05 05:02:53;;;;;;;0.00;0.00;;;16.90;99.90;;;;;;5063997;28;20440;-81
2022/09/05 05:05:55;;;;;;;0.00;0.00;;;16.90;99.90;;;;;;5063938;28;20437;-82
2022/09/05 05:08:49;;;;;;;0.00;0.00;;;16.90;99.90;;;;;;5064080;28;20537;-80
2022/09/05 05:11:26;;;;;;;0.00;0.00;;;16.90;99.90;;;;;;5064520;28;20705;-81
2022/09/05 05:14:20;;;;;;;0.00;0.00;;;16.90;99.90;;;;;;5059798;28;20520;-75
2022/09/05 05:17:25;;;;;;;0.00;0.00;;;16.90;99.90;;;;;;5058669;28;20993;-76
2022/09/05 05:20:25;;;;;;;0.00;0.00;;;16.90;99.90;;;;;;5068425;28;20473;-76
2022/09/05 05:23:13;;;;;;;0.00;0.00;;;16.90;99.90;;;;;;5079260;28;20727;-75
2022/09/05 05:25:48;;;;;;;0.00;0.00;;;16.90;99.90;;;;;;5071843;28;20718;-76
2022/09/05 05:28:25;;;;;;;0.00;0.00;;;17.00;99.90;;;;;;5082446;28;20433;-76
2022/09/05 05:30:54;;;;;;;0.00;0.00;;;17.10;99.90;;;;;;5041159;28;20841;-76
2022/09/05 05:33:32;;;;;;;0.00;0.00;;;17.10;99.90;;;;;;5039045;28;20448;-75
2022/09/05 05:36:02;;;;;;;0.00;0.00;;;17.20;99.90;;;;;;5041152;28;20658;-75
2022/09/05 05:38:39;;;;;;;0.00;0.00;;;17.20;99.90;;;;;;5038473;28;20909;-74
2022/09/05 05:41:17;;;;;;;0.00;0.00;;;17.20;99.90;;;;;;5038535;28;20824;-75
2022/09/05 05:43:48;;;;;;;0.00;0.00;;;17.30;99.90;;;;;;5037647;28;20592;-74
2022/09/05 05:46:30;;;;;;;0.00;0.00;;;17.40;99.90;;;;;;5037756;28;20532;-74
2022/09/05 05:49:18;;;;;;;0.00;0.00;;;17.30;99.90;;;;;;5037660;28;20681;-73
2022/09/05 05:51:54;;;;;;;0.00;0.00;;;17.40;99.90;;;;;;5038321;28;20462;-74
2022/09/05 05:54:37;;;;;;;0.00;0.00;;;17.50;99.90;;;;;;5038708;28;20441;-73
2022/09/05 05:57:52;;;;;;;0.00;0.00;;;17.60;99.90;;;;;;5038463;28;20441;-74
2022/09/05 06:00:30;;;;;;;0.00;0.00;;;17.70;99.90;;;;;;5039657;28;20887;-74
2022/09/05 06:03:40;;;;;;;0.00;0.00;;;17.80;99.90;;;;;;5038803;28;20448;-79
2022/09/05 06:06:17;;;;;;;0.00;0.00;;;17.90;99.90;;;;;;5028852;28;20457;-83
2022/09/05 06:09:10;;;;;;;0.00;0.00;;;18.00;99.90;;;;;;5046506;28;20543;-84
2022/09/05 06:12:35;;;;;;;0.00;0.00;;;18.10;99.90;;;;;;5053732;28;20489;-81
2022/09/05 06:15:41;;;;;;;0.00;0.00;;;18.20;99.90;;;;;;5056395;28;20459;-83
2022/09/05 06:18:44;;;;;;;0.00;0.00;;;18.40;99.90;;;;;;5052261;28;21113;-83
2022/09/05 06:21:42;;;;;;;0.00;0.00;;;18.50;99.90;;;;;;5052636;28;21052;-83
2022/09/05 06:25:03;;;;;;;0.00;0.00;;;18.60;99.90;;;;;;5050594;28;20451;-79
2022/09/05 06:27:55;;;;;;;0.00;0.00;;;18.70;99.90;;;;;;5058768;28;21053;-82
2022/09/05 06:30:52;;;;;;;0.00;0.00;;;18.80;99.90;;;;;;5049298;28;20430;-83
2022/09/05 06:34:02;;;;;;;0.00;0.00;;;18.90;99.90;;;;;;5049854;28;20487;-80
2022/09/05 06:36:50;;;;;;;0.00;0.00;;;19.00;99.90;;;;;;5060539;28;20935;-83
2022/09/05 06:39:33;;;;;;;0.00;0.00;;;19.10;99.90;;;;;;5062895;28;20490;-80
2022/09/05 06:42:23;;;;;;;0.00;0.00;;;19.10;99.90;;;;;;5068774;28;20453;-80
2022/09/05 06:45:34;;;;;;;0.00;0.00;;;19.10;99.90;;;;;;5066209;28;20455;-79
2022/09/05 06:48:12;;;;;;;0.00;0.00;;;19.20;99.90;;;;;;5066845;28;20529;-79
2022/09/05 06:51:26;;;;;;;0.00;0.00;;;19.30;99.90;;;;;;5073363;28;20471;-81
2022/09/05 06:54:28;;;;;;;0.00;0.00;;;19.30;99.90;;;;;;5075004;28;20977;-80
2022/09/05 06:57:14;;;;;;;0.00;0.00;;;19.40;99.90;;;;;;5058571;28;20669;-83
2022/09/05 07:00:19;;;;;;;0.00;0.00;;;19.40;99.90;;;;;;5054553;28;20526;-84
2022/09/05 07:03:24;;;;;;;0.00;0.00;;;19.40;99.90;;;;;;5066759;28;20474;-83
2022/09/05 07:05:57;;;;;;;0.00;0.00;;;19.50;99.90;;;;;;5061407;28;20444;-82
2022/09/05 07:08:30;;;;;;;0.00;0.00;;;19.60;99.90;;;;;;5066676;28;21196;-82
2022/09/05 07:11:06;;;;;;;0.00;0.00;;;19.70;99.90;;;;;;5067757;28;20741;-76
2022/09/05 07:13:55;;;;;;;0.00;0.00;;;19.80;99.90;;;;;;5055133;28;20610;-76
2022/09/05 07:16:33;;;;;;;0.00;0.00;;;20.00;99.90;;;;;;5048056;28;20439;-76
2022/09/05 07:19:25;;;;;;;0.00;0.00;;;20.00;99.90;;;;;;5057655;28;20487;-78
2022/09/05 07:22:16;;;;;;;0.00;0.00;;;20.10;99.90;;;;;;5055595;28;20570;-76
2022/09/05 07:25:07;;;;;;;0.00;0.00;;;20.20;99.90;;;;;;5054105;28;20511;-77
2022/09/05 07:27:39;;;;;;;0.00;0.00;;;20.20;99.90;;;;;;5061472;28;20460;-77
2022/09/05 07:30:27;;;;;;;0.00;0.00;;;20.20;99.90;;;;;;5061675;28;20451;-77
2022/09/05 07:32:58;;;;;;;0.00;0.00;;;20.20;99.90;;;;;;5063285;28;20443;-78
2022/09/05 07:35:29;;;;;;;0.00;0.00;;;20.10;99.90;;;;;;5073584;28;20458;-77
2022/09/05 07:38:13;;;;;;;0.00;0.00;;;20.10;99.90;;;;;;5064294;28;20469;-77
2022/09/05 07:40:48;;;;;;;0.00;0.00;;;20.10;99.90;;;;;;5047870;28;20816;-76
2022/09/05 07:43:22;;;;;;;0.00;0.00;;;20.10;99.90;;;;;;5061620;28;20829;-77
2022/09/05 07:46:03;;;;;;;0.00;0.00;;;20.20;99.90;;;;;;5065352;28;20435;-77
2022/09/05 07:48:36;;;;;;;0.00;0.00;;;20.30;99.90;;;;;;5063963;28;20436;-76
2022/09/05 07:51:08;;;;;;;0.00;0.00;;;20.40;99.90;;;;;;5064847;28;20441;-73
2022/09/05 07:54:01;;;;;;;0.00;0.00;;;20.40;99.90;;;;;;5059655;28;20458;-73
2022/09/05 07:56:53;;;;;;;0.00;0.00;;;20.50;99.90;;;;;;5052856;28;20435;-73
2022/09/05 07:59:43;;;;;;;0.00;0.00;;;20.60;99.90;;;;;;5050238;28;20486;-72
2022/09/05 08:02:12;;;;;;;0.00;0.00;;;20.70;99.90;;;;;;5056525;28;20447;-73
2022/09/05 08:04:41;;;;;;;0.00;0.00;;;20.70;99.90;;;;;;5052754;28;20467;-75
2022/09/05 08:07:14;;;;;;;0.00;0.00;;;20.70;99.90;;;;;;5045399;28;20651;-73
2022/09/05 08:10:09;;;;;;;0.00;0.00;;;20.70;99.90;;;;;;5052098;28;20752;-73
2022/09/05 08:12:41;;;;;;;0.00;0.00;;;20.70;99.90;;;;;;5043214;28;20462;-74
2022/09/05 08:15:30;;;;;;;0.00;0.00;;;20.70;99.90;;;;;;5047305;28;20901;-74
2022/09/05 08:18:23;;;;;;;0.00;0.00;;;20.70;99.90;;;;;;5050611;28;20439;-73
2022/09/05 08:20:55;;;;;;;0.00;0.00;;;20.70;99.90;;;;;;5048720;28;20451;-73
2022/09/05 08:23:39;;;;;;;0.00;0.00;;;20.70;99.90;;;;;;5043857;28;20525;-73
2022/09/05 08:26:12;;;;;;;0.00;0.00;;;20.90;99.90;;;;;;5051354;28;20704;-74
2022/09/05 08:28:54;;;;;;;0.00;0.00;;;21.10;99.90;;;;;;5045975;28;20852;-74
2022/09/05 08:31:30;;;;;;;0.00;0.00;;;21.20;99.90;;;;;;5047987;28;21066;-74
2022/09/05 08:34:02;;;;;;;0.00;0.00;;;21.30;99.90;;;;;;5051145;28;20512;-75
2022/09/05 08:36:35;;;;;;;0.00;0.00;;;21.30;99.90;;;;;;5047277;28;20560;-76
2022/09/05 08:39:09;;;;;;;0.00;0.00;;;21.40;99.90;;;;;;5059366;28;20809;-75
2022/09/05 08:41:53;;;;;;;0.00;0.00;;;21.50;99.90;;;;;;5059203;28;20467;-76
2022/09/05 08:44:36;;;;;;;0.00;0.00;;;21.60;99.90;;;;;;5059579;28;20443;-75
2022/09/05 08:47:31;;;;;;;0.00;0.00;;;21.70;99.90;;;;;;5059342;28;20435;-76
2022/09/05 08:50:45;;;;;;;0.00;0.00;;;21.70;99.90;;;;;;5059331;28;20669;-78
2022/09/05 08:53:23;;;;;;;0.00;0.00;;;21.70;99.90;;;;;;5051680;28;20443;-76
2022/09/05 08:56:18;;;;;;;0.00;0.00;;;21.80;99.90;;;;;;5060038;28;20435;-76
2022/09/05 08:58:59;;;;;;;0.00;0.00;;;21.80;99.90;;;;;;5055598;28;20556;-74
2022/09/05 09:02:17;;;;;;;0.00;0.00;;;21.80;99.90;;;;;;5041854;28;21029;-74
2022/09/05 09:05:15;;;;;;;0.00;0.00;;;21.90;99.90;;;;;;5053319;28;20461;-74
2022/09/05 09:07:52;;;;;;;0.00;0.00;;;22.00;99.90;;;;;;5059865;28;20451;-74
2022/09/05 09:10:43;;;;;;;0.00;0.00;;;22.10;99.90;;;;;;5067815;28;21147;-74
2022/09/05 09:13:22;;;;;;;0.00;0.00;;;22.20;99.90;;;;;;5071040;28;20438;-73
2022/09/05 09:16:03;;;;;;;0.00;0.00;;;22.30;99.90;;;;;;5068816;28;20436;-73
2022/09/05 09:18:41;;;;;;;0.00;0.00;;;22.30;99.90;;;;;;5065785;28;20518;-75
2022/09/05 09:21:30;;;;;;;0.00;0.00;;;22.40;99.90;;;;;;5061401;28;21139;-76
2022/09/05 09:24:07;;;;;;;0.00;0.00;;;22.50;99.90;;;;;;5060060;28;20443;-76
2022/09/05 09:26:42;;;;;;;0.00;0.00;;;22.60;99.90;;;;;;5061053;28;20432;-75
2022/09/05 09:29:13;;;;;;;0.00;0.00;;;22.80;99.90;;;;;;5061335;28;20477;-74
2022/09/05 09:32:02;;;;;;;0.00;0.00;;;23.00;99.90;;;;;;5053447;28;20563;-73
2022/09/05 09:34:52;;;;;;;0.00;0.00;;;23.10;99.90;;;;;;5063904;28;20436;-72
2022/09/05 09:37:56;;;;;;;0.00;0.00;;;23.30;99.90;;;;;;5068916;28;20511;-72
2022/09/05 09:40:59;;;;;;;0.00;0.00;;;23.40;99.90;;;;;;5065025;28;20502;-72
2022/09/05 09:43:53;;;;;;;0.00;0.00;;;23.60;99.90;;;;;;5076796;28;20443;-71
2022/09/05 09:46:33;;;;;;;0.00;0.00;;;23.60;99.90;;;;;;5070051;28;20592;-71
2022/09/05 09:49:28;;;;;;;0.00;0.00;;;23.70;99.90;;;;;;5064584;28;20991;-71
2022/09/05 09:52:23;;;;;;;0.00;0.00;;;23.80;99.90;;;;;;5068363;28;20449;-72
2022/09/05 09:55:37;;;;;;;0.00;0.00;;;23.70;99.90;;;;;;5065849;28;20468;-72
2022/09/05 09:58:35;;;;;;;0.00;0.00;;;23.80;99.90;;;;;;5068181;28;20824;-72
2022/09/05 10:01:17;;;;;;;0.00;0.00;;;23.90;99.90;;;;;;5063749;28;20562;-71
2022/09/05 10:04:19;;;;;;;0.00;0.00;;;23.90;99.90;;;;;;5067101;28;20458;-70
2022/09/05 10:07:49;;;;;;;0.00;0.00;;;23.90;99.90;;;;;;5059506;28;20682;-71
2022/09/05 10:11:10;;;;;;;0.00;0.00;;;23.90;99.90;;;;;;5059780;28;20482;-70
2022/09/05 10:14:33;;;;;;;0.00;0.00;;;23.80;99.90;;;;;;5060539;28;20452;-71
2022/09/05 10:17:41;;;;;;;0.00;0.00;;;23.60;99.90;;;;;;5058193;28;20434;-70
2022/09/05 10:20:25;;;;;;;0.00;0.00;;;23.50;99.90;;;;;;5065759;28;20864;-70
2022/09/05 10:23:38;;;;;;;0.00;0.00;;;23.50;99.90;;;;;;5069205;28;20722;-70
2022/09/05 10:27:00;;;;;;;0.00;0.00;;;23.50;99.90;;;;;;5012267;28;20439;-75
2022/09/05 10:29:58;;;;;;;0.00;0.00;;;23.40;99.90;;;;;;5054189;28;20549;-73
2022/09/05 10:32:36;;;;;;;0.00;0.00;;;23.40;99.90;;;;;;5050174;28;20527;-73
2022/09/05 10:35:33;;;;;;;0.00;0.00;;;23.30;99.90;;;;;;5047462;28;20902;-72
2022/09/05 10:38:10;;;;;;;0.00;0.00;;;23.50;99.90;;;;;;5046193;28;20992;-71
2022/09/05 10:40:41;;;;;;;0.00;0.00;;;23.60;99.90;;;;;;5059252;28;20572;-72
2022/09/05 10:43:32;;;;;;;0.00;0.00;;;23.70;99.90;;;;;;5057431;28;20465;-73
2022/09/05 10:46:10;;;;;;;0.00;0.00;;;23.90;99.90;;;;;;5050373;28;20479;-73
2022/09/05 10:48:54;;;;;;;0.00;0.00;;;24.00;99.90;;;;;;5048646;28;20479;-74
2022/09/05 10:51:29;;;;;;;0.00;0.00;;;24.10;99.90;;;;;;5044997;28;20538;-73
2022/09/05 10:54:22;;;;;;;0.00;0.00;;;24.20;99.90;;;;;;5043154;28;20556;-73
2022/09/05 10:57:01;;;;;;;0.00;0.00;;;24.40;99.90;;;;;;5052945;28;20452;-74
2022/09/05 10:59:38;;;;;;;0.00;0.00;;;24.40;99.90;;;;;;5045324;28;20475;-74
2022/09/05 11:02:29;;;;;;;0.00;0.00;;;24.50;99.90;;;;;;5040744;28;20443;-72
2022/09/05 11:05:21;;;;;;;0.00;0.00;;;24.50;99.90;;;;;;5041149;28;20450;-73
2022/09/05 11:08:04;;;;;;;0.00;0.00;;;24.60;99.90;;;;;;5047510;28;20453;-73
2022/09/05 11:10:37;;;;;;;0.00;0.00;;;24.60;99.90;;;;;;5052322;28;20963;-73
2022/09/05 11:13:15;;;;;;;0.00;0.00;;;24.50;99.90;;;;;;5042820;28;20906;-74
2022/09/05 11:15:57;;;;;;;0.00;0.00;;;24.40;99.90;;;;;;5043240;28;20709;-73
2022/09/05 11:19:05;;;;;;;0.00;0.00;;;24.50;99.90;;;;;;5042229;28;20451;-71
2022/09/05 11:21:44;;;;;;;0.00;0.00;;;24.50;99.90;;;;;;5049279;28;20484;-74
2022/09/05 11:24:26;;;;;;;0.00;0.00;;;24.40;99.90;;;;;;5053101;28;20485;-73
2022/09/05 11:26:59;;;;;;;0.00;0.00;;;24.40;99.90;;;;;;5046291;28;20544;-73
2022/09/05 11:29:51;;;;;;;0.00;0.00;;;24.40;99.90;;;;;;5047224;28;20459;-73
2022/09/05 11:32:41;;;;;;;0.00;0.00;;;24.40;99.90;;;;;;5056408;28;20449;-73
2022/09/05 11:35:32;;;;;;;0.00;0.00;;;24.30;99.90;;;;;;5044752;28;21112;-73
2022/09/05 11:38:44;;;;;;;0.00;0.00;;;24.20;99.90;;;;;;5054612;28;20446;-73
2022/09/05 11:42:11;;;;;;;0.00;0.00;;;24.10;99.90;;;;;;5050451;28;21174;-71
2022/09/05 11:45:07;;;;;;;0.00;0.00;;;24.10;99.90;;;;;;5038588;28;20556;-73
2022/09/05 11:48:24;;;;;;;0.00;0.00;;;24.10;99.90;;;;;;5043637;28;20436;-71
2022/09/05 11:51:20;;;;;;;0.00;0.00;;;24.10;99.90;;;;;;5066369;28;20673;-72
2022/09/05 11:54:37;;;;;;;0.00;0.00;;;24.10;99.90;;;;;;5066378;28;20515;-73
2022/09/05 11:57:44;;;;;;;0.00;0.00;;;24.20;99.90;;;;;;5029584;28;20511;-73
2022/09/05 12:00:18;;;;;;;0.00;0.00;;;24.20;99.90;;;;;;5060668;28;20463;-73
2022/09/05 12:03:51;;;;;;;0.00;0.00;;;24.20;99.90;;;;;;5041424;28;20496;-71
2022/09/05 12:07:06;;;;;;;0.00;0.00;;;24.40;99.90;;;;;;5059520;28;20792;-72
2022/09/05 12:10:05;;;;;;;0.00;0.00;;;24.40;99.90;;;;;;5048605;28;20568;-71
2022/09/05 12:12:39;;;;;;;0.00;0.00;;;24.40;99.90;;;;;;5051704;28;20473;-70
2022/09/05 12:15:27;;;;;;;0.00;0.00;;;24.40;99.90;;;;;;5048940;28;20452;-70
2022/09/05 12:18:21;;;;;;;0.00;0.00;;;24.40;99.90;;;;;;5049741;28;20634;-72
2022/09/05 12:21:01;;;;;;;0.00;0.00;;;24.40;99.90;;;;;;5053625;28;20487;-73
2022/09/05 12:23:45;;;;;;;0.00;0.00;;;24.50;99.90;;;;;;5060672;28;20540;-72
2022/09/05 12:26:41;;;;;;;0.00;0.00;;;24.50;99.90;;;;;;5049970;28;20439;-71
2022/09/05 12:29:35;;;;;;;0.00;0.00;;;24.50;99.90;;;;;;5046288;28;20460;-71
2022/09/05 12:32:19;;;;;;;0.00;0.00;;;24.40;99.90;;;;;;5048422;28;20776;-70
2022/09/05 12:35:08;;;;;;;0.00;0.00;;;24.40;99.90;;;;;;5053181;28;20439;-72
2022/09/05 12:38:02;;;;;;;0.00;0.00;;;24.50;99.90;;;;;;5047703;28;20622;-71
2022/09/05 12:40:56;;;;;;;0.00;0.00;;;24.50;99.90;;;;;;5051881;28;20471;-73
2022/09/05 12:43:48;;;;;;;0.00;0.00;;;24.50;99.90;;;;;;5053259;28;20460;-70
2022/09/05 12:46:52;;;;;;;0.00;0.00;;;24.60;99.90;;;;;;5059574;28;20444;-70
2022/09/05 12:49:31;;;;;;;0.00;0.00;;;24.60;99.90;;;;;;5050776;28;20475;-72
2022/09/05 12:52:05;;;;;;;0.00;0.00;;;24.70;99.90;;;;;;5052167;28;20565;-71
2022/09/05 12:54:41;;;;;;;0.00;0.00;;;24.70;99.90;;;;;;5059949;28;20454;-72
2022/09/05 12:57:26;;;;;;;0.00;0.00;;;24.80;99.90;;;;;;5060191;28;20885;-72
2022/09/05 13:00:17;;;;;;;0.00;0.00;;;24.90;99.90;;;;;;5059017;28;20462;-73
2022/09/05 13:03:13;;;;;;;0.00;0.00;;;25.00;99.90;;;;;;5044629;28;20972;-74
2022/09/05 13:06:08;;;;;;;0.00;0.00;;;25.00;99.90;;;;;;5047647;28;20454;-73
2022/09/05 13:08:56;;;;;;;0.00;0.00;;;25.10;99.90;;;;;;5049177;28;20485;-73
2022/09/05 13:11:29;;;;;;;0.00;0.00;;;25.10;99.90;;;;;;5046124;28;20446;-77
2022/09/05 13:14:22;;;;;;;0.00;0.00;;;25.20;99.90;;;;;;5045520;28;20473;-72
2022/09/05 13:17:12;;;;;;;0.00;0.00;;;25.30;99.90;;;;;;5049702;28;20442;-72
2022/09/05 13:19:50;;;;;;;0.00;0.00;;;25.30;99.90;;;;;;5039177;28;20505;-72
2022/09/05 13:22:21;;;;;;;0.00;0.00;;;25.30;99.90;;;;;;5048070;28;20484;-70
2022/09/05 13:24:58;;;;;;;0.00;0.00;;;25.40;99.90;;;;;;5050282;28;20465;-71
2022/09/05 13:27:30;;;;;;;0.00;0.00;;;25.40;99.90;;;;;;5044566;28;20452;-72
2022/09/05 13:30:06;;;;;;;0.00;0.00;;;25.40;99.90;;;;;;5058900;28;20468;-72
2022/09/05 13:32:56;;;;;;;0.00;0.00;;;25.40;99.90;;;;;;5056468;28;20950;-70
2022/09/05 13:35:52;;;;;;;0.00;0.00;;;25.30;99.90;;;;;;5048846;28;20443;-72
2022/09/05 13:38:50;;;;;;;0.00;0.00;;;25.10;99.90;;;;;;5049503;28;20460;-72
2022/09/05 13:41:26;;;;;;;0.00;0.00;;;25.00;99.90;;;;;;5049940;28;21134;-72
2022/09/05 13:43:58;;;;;;;0.00;0.00;;;24.90;99.90;;;;;;5046972;28;20476;-72
2022/09/05 13:46:53;;;;;;;0.00;0.00;;;24.70;99.90;;;;;;5045714;28;20636;-74
2022/09/05 13:49:29;;;;;;;0.00;0.00;;;24.70;99.90;;;;;;5051121;28;20456;-74
2022/09/05 13:52:15;;;;;;;0.00;0.00;;;24.60;99.90;;;;;;5058338;28;20514;-75
2022/09/05 13:54:47;;;;;;;0.00;0.00;;;24.60;99.90;;;;;;5049720;28;21303;-81
2022/09/05 13:57:28;;;;;;;0.00;0.00;;;24.50;99.90;;;;;;5059693;28;20437;-74
2022/09/05 14:00:37;;;;;;;0.00;0.00;;;24.50;99.90;;;;;;5057911;28;20463;-77
2022/09/05 14:03:34;;;;;;;0.00;0.00;;;24.50;99.90;;;;;;5055956;28;20534;-80
2022/09/05 14:06:47;;;;;;;0.00;0.00;;;24.50;99.90;;;;;;5055753;28;20521;-77
2022/09/05 14:09:34;;;;;;;0.00;0.00;;;24.50;99.90;;;;;;5015256;28;20464;-77
2022/09/05 14:12:11;;;;;;;0.00;0.00;;;24.50;99.90;;;;;;5050077;28;20506;-76
2022/09/05 14:14:46;;;;;;;0.00;0.00;;;24.40;99.90;;;;;;5046686;28;20456;-75
2022/09/05 14:17:50;;;;;;;0.00;0.00;;;24.40;99.90;;;;;;5053410;28;20448;-74
2022/09/05 14:23:13;;;;;;;0.00;0.00;;;24.50;99.90;;;;;;5038857;28;20634;-74
2022/09/05 14:25:47;;;;;;;0.00;0.00;;;24.40;99.90;;;;;;5039114;28;20451;-74
2022/09/05 14:28:23;;;;;;;0.00;0.00;;;24.40;99.90;;;;;;5047294;28;20544;-73
2022/09/05 14:30:53;;;;;;;0.00;0.00;;;24.40;99.90;;;;;;5045316;28;20481;-72
2022/09/05 14:34:00;;;;;;;0.00;0.00;;;24.50;99.90;;;;;;5043697;28;20450;-73
2022/09/05 14:36:58;;;;;;;0.00;0.00;;;24.50;99.90;;;;;;5056634;28;20949;-73
2022/09/05 14:40:15;;;;;;;0.00;0.00;;;24.50;99.90;;;;;;5036896;28;20481;-74
2022/09/05 14:43:19;;;;;;;0.00;0.00;;;24.60;99.90;;;;;;5038378;28;21053;-74
2022/09/05 14:46:10;;;;;;;0.00;0.00;;;24.60;99.90;;;;;;5038705;28;20449;-74
2022/09/05 14:49:08;;;;;;;0.00;0.00;;;24.60;99.90;;;;;;5039156;28;20465;-74
2022/09/05 14:51:46;;;;;;;0.00;0.00;;;24.70;99.90;;;;;;5038639;28;20635;-74
2022/09/05 14:54:20;;;;;;;0.00;0.00;;;24.70;99.90;;;;;;5038556;28;20439;-74
2022/09/05 14:57:16;;;;;;;0.00;0.00;;;24.80;99.90;;;;;;5038360;28;20460;-74
2022/09/05 15:00:11;;;;;;;0.00;0.00;;;24.80;99.90;;;;;;5038830;28;20451;-73